CheckWX is a tool to help pilots better visualize weather data.  It is not intended as a substitute for an official pre-flight weather briefing.

06:41:34 UTC

EGHQ METAR
Newquay Cornwall Airport
Newquay, United Kingdom
Current

22 mins ago

EGHQ 230620Z 12017KT 9999 NSC 14/08 Q0994
Observed
Apr-23 @ 06:20 UTC
Wind
  • 120° at 17 KTS
Visibility
10,000+ meters
Flight Rules
VFR
Cloud Levels
  • Clear skies
Temperature
14°C / 57°F
Dewpoint
C / 46°F
Humidity
67%
Altimeter
29.35" Hg
Pressure
993.92 hPa
Previous

52 mins ago

EGHQ 230550Z 12017KT CAVOK 14/07 Q0994
Observed
Apr-23 @ 05:50 UTC
Wind
  • 120° at 17 KTS
Visibility
10,000+ meters
Flight Rules
VFR
Cloud Levels
  • Clear skies
Temperature
14°C / 57°F
Dewpoint
C / 45°F
Humidity
63%
Altimeter
29.35" Hg
Pressure
993.92 hPa
Previous

10 hours ago

EGHQ 222020Z 09010KT 8000 NSC 13/07 Q0999
Observed
Apr-22 @ 20:20 UTC
Wind
  • 090° at 10 KTS
Visibility
7,998 meters
Flight Rules
MVFR
Cloud Levels
  • Clear skies
Temperature
13°C / 55°F
Dewpoint
C / 45°F
Humidity
67%
Altimeter
29.5" Hg
Pressure
998.92 hPa